createdAt,value
2022-12-14T00:02:03.095Z,-7.41
2022-12-14T00:07:04.888Z,-7.53
2022-12-14T00:12:08.788Z,-7.53
2022-12-14T00:17:10.504Z,-7.46
2022-12-14T00:22:12.205Z,-7.42
2022-12-14T00:27:13.866Z,-7.40
2022-12-14T00:32:15.514Z,-7.36
2022-12-14T00:37:17.155Z,-7.19
2022-12-14T00:42:18.808Z,-7.37
2022-12-14T00:47:20.433Z,-7.36
2022-12-14T00:52:22.107Z,-7.34
2022-12-14T00:57:23.834Z,-7.04
2022-12-14T01:02:25.662Z,-7.02
2022-12-14T01:07:27.478Z,-7.06
2022-12-14T01:12:29.264Z,-6.93
2022-12-14T01:17:30.904Z,-7.03
2022-12-14T01:22:32.609Z,-6.97
2022-12-14T01:27:34.359Z,-6.99
2022-12-14T01:32:36.054Z,-6.93
2022-12-14T01:37:37.731Z,-7.08
2022-12-14T01:42:39.432Z,-6.97
2022-12-14T01:47:44.339Z,-6.68
2022-12-14T01:52:49.531Z,-6.95
2022-12-14T01:57:57.144Z,-6.79
2022-12-14T02:03:07.753Z,-6.67
2022-12-14T02:08:09.847Z,-6.71
2022-12-14T02:13:22.859Z,-6.80
2022-12-14T02:18:27.586Z,-6.52
2022-12-14T02:23:50.528Z,-6.32
2022-12-14T02:29:10.771Z,-6.53
2022-12-14T02:34:45.555Z,-6.33
2022-12-14T02:40:07.374Z,-6.26
2022-12-14T02:45:32.180Z,-6.29
2022-12-14T02:50:37.885Z,-6.25
2022-12-14T02:55:46.073Z,-6.57
2022-12-14T03:00:49.463Z,-6.37
2022-12-14T03:05:59.626Z,-6.13
2022-12-14T03:11:06.623Z,-5.95
2022-12-14T03:16:16.742Z,-5.97
2022-12-14T03:21:24.589Z,-5.82
2022-12-14T03:26:45.621Z,-5.95
2022-12-14T03:31:55.067Z,-5.84
2022-12-14T03:37:11.814Z,-5.66
2022-12-14T03:42:23.574Z,-5.67
2022-12-14T03:47:40.040Z,-5.81
2022-12-14T03:52:56.923Z,-5.84
2022-12-14T03:58:39.318Z,-5.71
2022-12-14T04:03:51.428Z,-5.81
2022-12-14T04:09:12.223Z,-5.65
2022-12-14T04:14:38.232Z,-5.66
2022-12-14T04:19:50.878Z,-5.65
2022-12-14T04:25:34.583Z,-5.81
2022-12-14T04:30:39.535Z,-5.72
2022-12-14T04:35:42.516Z,-5.65
2022-12-14T04:40:58.899Z,-5.89
2022-12-14T04:46:14.926Z,-5.94
2022-12-14T04:51:33.698Z,-5.74
2022-12-14T04:56:53.161Z,-5.86
2022-12-14T05:01:54.856Z,-5.79
2022-12-14T05:07:17.592Z,-5.77
2022-12-14T05:12:34.158Z,-5.72
2022-12-14T05:17:40.560Z,-5.76
2022-12-14T05:22:43.963Z,-5.78
2022-12-14T05:27:46.630Z,-5.89
2022-12-14T05:32:48.539Z,-5.78
2022-12-14T05:37:50.226Z,-5.72
2022-12-14T05:42:55.750Z,-5.87
2022-12-14T05:47:57.720Z,-5.83
2022-12-14T05:52:59.346Z,-5.56
2022-12-14T05:58:01.479Z,-5.63
2022-12-14T06:03:03.177Z,-5.76
2022-12-14T06:08:05.059Z,-5.63
2022-12-14T06:13:06.767Z,-5.62
2022-12-14T06:18:08.471Z,-5.39
2022-12-14T06:23:10.288Z,-5.53
2022-12-14T06:28:11.975Z,-5.39
2022-12-14T06:33:13.956Z,-5.45
2022-12-14T06:38:16.491Z,-5.63
2022-12-14T06:43:18.274Z,-5.71
2022-12-14T06:48:20.119Z,-5.44
2022-12-14T06:53:21.873Z,-5.25
2022-12-14T06:58:25.756Z,-5.08
2022-12-14T07:03:32.108Z,-5.21
2022-12-14T07:08:36.281Z,-5.19
2022-12-14T07:13:39.086Z,-5.19
2022-12-14T07:18:40.735Z,-5.09
2022-12-14T07:23:43.861Z,-5.02
2022-12-14T07:28:45.762Z,-5.26
2022-12-14T07:33:47.870Z,-5.01
2022-12-14T07:38:50.720Z,-4.89
2022-12-14T07:43:54.727Z,-4.71
2022-12-14T07:48:57.794Z,-4.67
2022-12-14T07:54:01.774Z,-4.84
2022-12-14T07:59:06.675Z,-4.77
2022-12-14T08:04:14.970Z,-4.64
2022-12-14T08:09:17.515Z,-4.53
2022-12-14T08:14:19.365Z,-4.71
2022-12-14T08:19:21.193Z,-4.50
2022-12-14T08:24:22.913Z,-4.34
2022-12-14T08:29:24.606Z,-4.43
2022-12-14T08:34:26.183Z,-4.22
2022-12-14T08:39:27.842Z,-4.14
2022-12-14T08:44:29.471Z,-4.08
2022-12-14T08:49:32.582Z,-4.16
2022-12-14T08:54:35.477Z,-4.02
2022-12-14T09:00:00.697Z,-3.76
2022-12-14T09:04:58.808Z,-3.68
2022-12-14T09:10:00.441Z,-3.61
2022-12-14T09:15:02.283Z,-3.49
2022-12-14T09:20:04.987Z,-3.42
2022-12-14T09:25:06.957Z,-3.43
2022-12-14T09:30:08.969Z,-3.40
2022-12-14T09:35:10.607Z,-3.21
2022-12-14T09:40:13.645Z,-3.28
2022-12-14T09:45:24.246Z,-3.25
2022-12-14T09:50:27.155Z,-3.13
2022-12-14T09:55:43.417Z,-3.09
2022-12-14T10:00:53.556Z,-2.94
2022-12-14T10:06:11.553Z,-2.78
2022-12-14T10:11:31.349Z,-2.60
2022-12-14T10:16:56.708Z,-2.66
2022-12-14T10:22:06.875Z,-2.67
2022-12-14T10:27:11.514Z,-2.53
2022-12-14T10:32:29.663Z,-1.96
2022-12-14T10:37:42.637Z,-2.03
2022-12-14T10:42:44.239Z,-1.78
2022-12-14T10:47:56.999Z,-1.77
2022-12-14T10:53:00.017Z,-1.94
2022-12-14T10:58:01.783Z,-1.85
2022-12-14T11:03:06.884Z,-1.64
2022-12-14T11:08:10.454Z,-1.80
2022-12-14T11:13:20.980Z,-1.70
2022-12-14T11:18:31.176Z,-1.78
2022-12-14T11:23:47.362Z,-1.67
2022-12-14T11:28:52.290Z,-1.59
2022-12-14T11:33:56.882Z,-1.43
2022-12-14T11:39:01.203Z,-1.98
2022-12-14T11:44:15.484Z,-1.99
2022-12-14T11:49:35.132Z,-1.76
2022-12-14T11:54:39.932Z,-1.59
2022-12-14T11:59:51.024Z,-1.95
2022-12-14T12:05:04.832Z,-1.77
2022-12-14T12:10:09.517Z,-1.63
2022-12-14T12:15:17.468Z,-1.89
2022-12-14T12:20:53.698Z,-1.79
2022-12-14T12:25:58.613Z,-1.69
2022-12-14T12:31:10.654Z,-1.59
2022-12-14T12:36:20.449Z,-1.85
2022-12-14T12:41:44.627Z,-1.63
2022-12-14T12:47:23.426Z,-1.88
2022-12-14T12:52:28.082Z,-1.70
2022-12-14T12:57:42.092Z,-1.85
2022-12-14T13:02:50.374Z,-1.88
2022-12-14T13:07:57.424Z,-1.96
2022-12-14T13:13:17.028Z,-1.84
2022-12-14T13:18:56.051Z,-2.06
2022-12-14T13:23:47.333Z,-2.01
2022-12-14T13:29:09.041Z,-2.09
2022-12-14T13:34:29.140Z,-1.89
2022-12-14T13:39:56.091Z,-2.04
2022-12-14T13:45:03.127Z,-1.92
2022-12-14T13:50:38.505Z,-1.82
2022-12-14T13:55:34.278Z,-2.03
2022-12-14T14:00:45.253Z,-2.06
2022-12-14T14:05:46.939Z,-2.04
2022-12-14T14:10:54.114Z,-2.02
2022-12-14T14:16:27.574Z,-1.93
2022-12-14T14:21:58.793Z,-1.87
2022-12-14T14:27:17.244Z,-2.17
2022-12-14T14:32:33.624Z,-2.40
2022-12-14T14:37:38.721Z,-2.17
2022-12-14T14:42:49.744Z,-2.27
2022-12-14T14:47:56.977Z,-2.24
2022-12-14T14:53:18.269Z,-2.49
2022-12-14T14:58:27.523Z,-2.49
2022-12-14T15:03:55.665Z,-2.21
2022-12-14T15:09:03.710Z,-2.35
2022-12-14T15:14:16.074Z,-2.47
2022-12-14T15:19:27.874Z,-2.50
2022-12-14T15:24:37.443Z,-1.94
2022-12-14T15:29:39.232Z,-2.26
2022-12-14T15:34:52.043Z,-2.22
2022-12-14T15:40:11.992Z,-2.18
2022-12-14T15:45:18.491Z,-2.29
2022-12-14T15:50:32.719Z,-2.32
2022-12-14T15:55:41.935Z,-2.44
2022-12-14T16:00:48.144Z,-2.53
2022-12-14T16:05:50.379Z,-2.46
2022-12-14T16:10:55.835Z,-2.55
2022-12-14T16:16:00.507Z,-2.57
2022-12-14T16:21:04.067Z,-2.65
2022-12-14T16:26:14.783Z,-2.64
2022-12-14T16:31:21.986Z,-2.30
2022-12-14T16:36:25.578Z,-2.44
2022-12-14T16:41:41.025Z,-2.44
2022-12-14T16:47:03.425Z,-2.53
2022-12-14T16:52:19.888Z,-2.44
2022-12-14T16:57:24.156Z,-2.58
2022-12-14T17:02:30.865Z,-2.59
2022-12-14T17:07:33.492Z,-2.75
2022-12-14T17:12:35.164Z,-2.93
2022-12-14T17:17:36.922Z,-2.65
2022-12-14T17:22:38.651Z,-2.83
2022-12-14T17:27:41.137Z,-2.60
2022-12-14T17:32:43.516Z,-2.80
2022-12-14T17:37:45.242Z,-2.70
2022-12-14T17:42:52.986Z,-2.85
2022-12-14T17:47:55.256Z,-3.08
2022-12-14T17:52:57.043Z,-2.97
2022-12-14T17:58:00.103Z,-2.94
2022-12-14T18:03:03.171Z,-3.02
2022-12-14T18:08:05.229Z,-3.04
2022-12-14T18:13:07.218Z,-3.14
2022-12-14T18:18:09.067Z,-3.18
2022-12-14T18:23:17.943Z,-2.65
2022-12-14T18:28:19.942Z,-2.78
2022-12-14T18:33:24.164Z,-3.07
2022-12-14T18:38:26.553Z,-2.97
2022-12-14T18:43:29.019Z,-3.27
2022-12-14T18:48:31.038Z,-3.47
2022-12-14T18:53:33.873Z,-3.29
2022-12-14T18:58:36.245Z,-3.17
2022-12-14T19:03:38.024Z,-3.10
2022-12-14T19:08:41.347Z,-3.28
2022-12-14T19:13:45.422Z,-3.16
2022-12-14T19:18:47.040Z,-3.33
2022-12-14T19:23:48.645Z,-3.47
2022-12-14T19:28:50.343Z,-3.43
2022-12-14T19:33:51.980Z,-3.19
2022-12-14T19:38:53.655Z,-3.18
2022-12-14T19:43:58.735Z,-3.26
2022-12-14T19:49:00.962Z,-3.10
2022-12-14T19:54:03.827Z,-3.14
2022-12-14T19:59:05.501Z,-3.47
2022-12-14T20:04:07.240Z,-3.35
2022-12-14T20:09:09.979Z,-3.34
2022-12-14T20:14:12.923Z,-3.43
2022-12-14T20:19:14.690Z,-3.40
2022-12-14T20:24:17.437Z,-3.41
2022-12-14T20:29:19.161Z,-3.58
2022-12-14T20:34:21.887Z,-3.69
2022-12-14T20:39:23.907Z,-3.82
2022-12-14T20:44:26.068Z,-3.84
2022-12-14T20:49:30.110Z,-3.87
2022-12-14T20:54:32.133Z,-3.90
2022-12-14T20:59:34.130Z,-3.98
2022-12-14T21:04:36.008Z,-4.24
2022-12-14T21:09:37.962Z,-4.31
2022-12-14T21:14:42.567Z,-4.42
2022-12-14T21:19:44.636Z,-4.54
2022-12-14T21:25:04.224Z,-4.61
2022-12-14T21:30:10.011Z,-4.69
2022-12-14T21:35:13.229Z,-4.70
2022-12-14T21:40:36.894Z,-4.71
2022-12-14T21:45:38.615Z,-4.74
2022-12-14T21:50:42.410Z,-4.92
2022-12-14T21:55:51.245Z,-4.92
2022-12-14T22:00:52.954Z,-5.10
2022-12-14T22:05:54.594Z,-5.19
2022-12-14T22:11:02.529Z,-5.16
2022-12-14T22:16:06.103Z,-4.90
2022-12-14T22:21:07.910Z,-5.00
2022-12-14T22:26:09.776Z,-4.91
2022-12-14T22:31:11.653Z,-4.87
2022-12-14T22:36:15.037Z,-5.03
2022-12-14T22:41:18.360Z,-5.28
2022-12-14T22:46:20.509Z,-5.33
2022-12-14T22:51:23.176Z,-5.47
2022-12-14T22:56:34.478Z,-5.48
2022-12-14T23:01:37.541Z,-5.55
2022-12-14T23:06:40.856Z,-5.56
2022-12-14T23:12:01.020Z,-5.67
2022-12-14T23:17:21.627Z,-5.84
2022-12-14T23:22:41.994Z,-5.94
2022-12-14T23:28:02.478Z,-5.98
2022-12-14T23:33:22.579Z,-5.86
2022-12-14T23:38:42.550Z,-6.01
2022-12-14T23:44:03.315Z,-6.07
2022-12-14T23:49:23.752Z,-6.04
2022-12-14T23:54:44.202Z,-6.30
